sensor_id;sensor_type;location;lat;lon;timestamp;P1;durP1;ratioP1;P2;durP2;ratioP2
23782;SDS011;12071;50.850;4.446;2023-07-30T00:01:47;10.07;;;3.00;;
23782;SDS011;12071;50.850;4.446;2023-07-30T00:04:13;8.35;;;3.10;;
23782;SDS011;12071;50.850;4.446;2023-07-30T00:06:39;12.55;;;3.45;;
23782;SDS011;12071;50.850;4.446;2023-07-30T00:09:04;11.57;;;3.58;;
23782;SDS011;12071;50.850;4.446;2023-07-30T00:11:30;10.20;;;2.95;;
23782;SDS011;12071;50.850;4.446;2023-07-30T00:13:55;9.98;;;2.85;;
23782;SDS011;12071;50.850;4.446;2023-07-30T00:16:21;7.05;;;3.28;;
23782;SDS011;12071;50.850;4.446;2023-07-30T00:18:46;10.63;;;3.15;;
23782;SDS011;12071;50.850;4.446;2023-07-30T00:21:12;11.57;;;3.38;;
23782;SDS011;12071;50.850;4.446;2023-07-30T00:23:38;12.75;;;3.63;;
23782;SDS011;12071;50.850;4.446;2023-07-30T00:26:03;10.30;;;2.83;;
23782;SDS011;12071;50.850;4.446;2023-07-30T00:28:29;12.23;;;3.00;;
23782;SDS011;12071;50.850;4.446;2023-07-30T00:30:54;9.82;;;2.95;;
23782;SDS011;12071;50.850;4.446;2023-07-30T00:33:20;9.23;;;3.40;;
23782;SDS011;12071;50.850;4.446;2023-07-30T00:35:45;9.57;;;2.72;;
23782;SDS011;12071;50.850;4.446;2023-07-30T00:38:11;8.45;;;2.70;;
23782;SDS011;12071;50.850;4.446;2023-07-30T00:40:40;16.90;;;3.33;;
23782;SDS011;12071;50.850;4.446;2023-07-30T00:43:06;13.20;;;2.70;;
23782;SDS011;12071;50.850;4.446;2023-07-30T00:45:32;16.88;;;2.92;;
23782;SDS011;12071;50.850;4.446;2023-07-30T00:47:57;14.10;;;3.08;;
23782;SDS011;12071;50.850;4.446;2023-07-30T00:50:23;14.63;;;3.05;;
23782;SDS011;12071;50.850;4.446;2023-07-30T00:52:49;12.48;;;2.78;;
23782;SDS011;12071;50.850;4.446;2023-07-30T00:55:15;12.25;;;2.83;;
23782;SDS011;12071;50.850;4.446;2023-07-30T00:57:41;10.43;;;2.40;;
23782;SDS011;12071;50.850;4.446;2023-07-30T01:00:07;11.95;;;2.50;;
23782;SDS011;12071;50.850;4.446;2023-07-30T01:02:34;12.88;;;3.22;;
23782;SDS011;12071;50.850;4.446;2023-07-30T01:05:00;13.55;;;3.20;;
23782;SDS011;12071;50.850;4.446;2023-07-30T01:07:26;12.77;;;3.05;;
23782;SDS011;12071;50.850;4.446;2023-07-30T01:09:52;14.55;;;2.90;;
23782;SDS011;12071;50.850;4.446;2023-07-30T01:12:18;13.80;;;3.22;;
23782;SDS011;12071;50.850;4.446;2023-07-30T01:14:46;10.75;;;2.80;;
23782;SDS011;12071;50.850;4.446;2023-07-30T01:17:13;14.55;;;2.95;;
23782;SDS011;12071;50.850;4.446;2023-07-30T01:19:39;9.65;;;2.65;;
23782;SDS011;12071;50.850;4.446;2023-07-30T01:22:05;13.02;;;3.25;;
23782;SDS011;12071;50.850;4.446;2023-07-30T01:24:30;11.07;;;2.63;;
23782;SDS011;12071;50.850;4.446;2023-07-30T01:27:01;9.85;;;2.60;;
23782;SDS011;12071;50.850;4.446;2023-07-30T01:29:35;11.13;;;2.75;;
23782;SDS011;12071;50.850;4.446;2023-07-30T01:32:07;11.73;;;3.00;;
23782;SDS011;12071;50.850;4.446;2023-07-30T01:34:35;12.75;;;3.17;;
23782;SDS011;12071;50.850;4.446;2023-07-30T01:37:01;8.25;;;2.75;;
23782;SDS011;12071;50.850;4.446;2023-07-30T01:39:27;14.25;;;3.17;;
23782;SDS011;12071;50.850;4.446;2023-07-30T01:41:54;10.98;;;2.40;;
23782;SDS011;12071;50.850;4.446;2023-07-30T01:44:20;7.70;;;2.53;;
23782;SDS011;12071;50.850;4.446;2023-07-30T01:46:45;9.27;;;2.90;;
23782;SDS011;12071;50.850;4.446;2023-07-30T01:49:11;8.65;;;2.70;;
23782;SDS011;12071;50.850;4.446;2023-07-30T01:51:37;11.50;;;2.80;;
23782;SDS011;12071;50.850;4.446;2023-07-30T01:54:02;15.05;;;3.17;;
23782;SDS011;12071;50.850;4.446;2023-07-30T01:56:28;17.17;;;2.92;;
23782;SDS011;12071;50.850;4.446;2023-07-30T01:58:54;13.77;;;2.90;;
23782;SDS011;12071;50.850;4.446;2023-07-30T02:01:19;11.27;;;2.33;;
23782;SDS011;12071;50.850;4.446;2023-07-30T02:03:45;13.88;;;2.65;;
23782;SDS011;12071;50.850;4.446;2023-07-30T02:06:11;13.65;;;2.75;;
23782;SDS011;12071;50.850;4.446;2023-07-30T02:08:37;9.20;;;2.55;;
23782;SDS011;12071;50.850;4.446;2023-07-30T02:11:03;11.85;;;2.72;;
23782;SDS011;12071;50.850;4.446;2023-07-30T02:13:28;13.07;;;3.08;;
23782;SDS011;12071;50.850;4.446;2023-07-30T02:15:54;12.57;;;2.50;;
23782;SDS011;12071;50.850;4.446;2023-07-30T02:18:19;15.85;;;2.90;;
23782;SDS011;12071;50.850;4.446;2023-07-30T02:20:45;16.70;;;3.03;;
23782;SDS011;12071;50.850;4.446;2023-07-30T02:23:10;16.75;;;2.70;;
23782;SDS011;12071;50.850;4.446;2023-07-30T02:25:37;15.57;;;2.42;;
23782;SDS011;12071;50.850;4.446;2023-07-30T02:28:03;11.68;;;2.05;;
23782;SDS011;12071;50.850;4.446;2023-07-30T02:30:29;12.45;;;2.85;;
23782;SDS011;12071;50.850;4.446;2023-07-30T02:32:54;18.83;;;3.15;;
23782;SDS011;12071;50.850;4.446;2023-07-30T02:35:20;13.52;;;2.42;;
23782;SDS011;12071;50.850;4.446;2023-07-30T02:37:46;12.77;;;2.53;;
23782;SDS011;12071;50.850;4.446;2023-07-30T02:40:11;13.80;;;3.15;;
23782;SDS011;12071;50.850;4.446;2023-07-30T02:42:37;15.48;;;3.00;;
23782;SDS011;12071;50.850;4.446;2023-07-30T02:45:03;11.07;;;2.30;;
23782;SDS011;12071;50.850;4.446;2023-07-30T02:47:30;13.77;;;2.80;;
23782;SDS011;12071;50.850;4.446;2023-07-30T02:49:55;14.52;;;2.70;;
23782;SDS011;12071;50.850;4.446;2023-07-30T02:52:21;13.32;;;2.50;;
23782;SDS011;12071;50.850;4.446;2023-07-30T02:54:46;13.77;;;2.83;;
23782;SDS011;12071;50.850;4.446;2023-07-30T02:57:12;12.80;;;2.33;;
23782;SDS011;12071;50.850;4.446;2023-07-30T02:59:38;16.33;;;3.00;;
23782;SDS011;12071;50.850;4.446;2023-07-30T03:02:05;14.27;;;2.35;;
23782;SDS011;12071;50.850;4.446;2023-07-30T03:04:31;14.88;;;3.05;;
23782;SDS011;12071;50.850;4.446;2023-07-30T03:06:57;13.30;;;2.60;;
23782;SDS011;12071;50.850;4.446;2023-07-30T03:09:22;16.50;;;2.70;;
23782;SDS011;12071;50.850;4.446;2023-07-30T03:11:51;14.43;;;3.20;;
23782;SDS011;12071;50.850;4.446;2023-07-30T03:14:17;14.73;;;2.65;;
23782;SDS011;12071;50.850;4.446;2023-07-30T03:16:45;22.02;;;2.75;;
23782;SDS011;12071;50.850;4.446;2023-07-30T03:19:12;10.02;;;2.65;;
23782;SDS011;12071;50.850;4.446;2023-07-30T03:21:37;12.77;;;2.20;;
23782;SDS011;12071;50.850;4.446;2023-07-30T03:24:03;19.80;;;2.67;;
23782;SDS011;12071;50.850;4.446;2023-07-30T03:26:28;17.33;;;2.60;;
23782;SDS011;12071;50.850;4.446;2023-07-30T03:28:54;13.32;;;2.42;;
23782;SDS011;12071;50.850;4.446;2023-07-30T03:31:19;14.30;;;2.60;;
23782;SDS011;12071;50.850;4.446;2023-07-30T03:33:45;13.20;;;3.03;;
23782;SDS011;12071;50.850;4.446;2023-07-30T03:36:11;14.13;;;2.42;;
23782;SDS011;12071;50.850;4.446;2023-07-30T03:38:43;13.70;;;2.47;;
23782;SDS011;12071;50.850;4.446;2023-07-30T03:41:09;10.75;;;2.63;;
23782;SDS011;12071;50.850;4.446;2023-07-30T03:43:36;19.13;;;2.55;;
23782;SDS011;12071;50.850;4.446;2023-07-30T03:46:01;13.65;;;2.40;;
23782;SDS011;12071;50.850;4.446;2023-07-30T03:48:27;23.40;;;3.03;;
23782;SDS011;12071;50.850;4.446;2023-07-30T03:50:53;11.77;;;2.33;;
23782;SDS011;12071;50.850;4.446;2023-07-30T03:53:19;13.63;;;2.47;;
23782;SDS011;12071;50.850;4.446;2023-07-30T03:55:45;14.32;;;2.55;;
23782;SDS011;12071;50.850;4.446;2023-07-30T03:58:10;13.73;;;2.33;;
23782;SDS011;12071;50.850;4.446;2023-07-30T04:00:36;20.17;;;2.95;;
23782;SDS011;12071;50.850;4.446;2023-07-30T04:03:02;14.75;;;2.60;;
23782;SDS011;12071;50.850;4.446;2023-07-30T04:05:28;13.85;;;3.17;;
23782;SDS011;12071;50.850;4.446;2023-07-30T04:07:54;15.95;;;3.17;;
23782;SDS011;12071;50.850;4.446;2023-07-30T04:10:19;16.17;;;2.85;;
23782;SDS011;12071;50.850;4.446;2023-07-30T04:12:45;16.40;;;3.42;;
23782;SDS011;12071;50.850;4.446;2023-07-30T04:15:10;11.50;;;2.15;;
23782;SDS011;12071;50.850;4.446;2023-07-30T04:17:36;19.67;;;2.58;;
23782;SDS011;12071;50.850;4.446;2023-07-30T04:20:02;13.20;;;2.45;;
23782;SDS011;12071;50.850;4.446;2023-07-30T04:22:29;14.10;;;2.40;;
23782;SDS011;12071;50.850;4.446;2023-07-30T04:24:55;21.73;;;2.53;;
23782;SDS011;12071;50.850;4.446;2023-07-30T04:27:20;15.85;;;2.65;;
23782;SDS011;12071;50.850;4.446;2023-07-30T04:29:46;12.40;;;2.40;;
23782;SDS011;12071;50.850;4.446;2023-07-30T04:32:12;12.10;;;2.70;;
23782;SDS011;12071;50.850;4.446;2023-07-30T04:34:37;17.92;;;2.90;;
23782;SDS011;12071;50.850;4.446;2023-07-30T04:37:03;15.32;;;2.55;;
23782;SDS011;12071;50.850;4.446;2023-07-30T04:39:30;16.75;;;2.72;;
23782;SDS011;12071;50.850;4.446;2023-07-30T04:41:57;15.55;;;2.67;;
23782;SDS011;12071;50.850;4.446;2023-07-30T04:44:23;18.10;;;2.67;;
23782;SDS011;12071;50.850;4.446;2023-07-30T04:46:48;13.55;;;3.10;;
23782;SDS011;12071;50.850;4.446;2023-07-30T04:49:14;17.23;;;2.85;;
23782;SDS011;12071;50.850;4.446;2023-07-30T04:51:39;13.50;;;2.55;;
23782;SDS011;12071;50.850;4.446;2023-07-30T04:54:05;18.23;;;2.58;;
23782;SDS011;12071;50.850;4.446;2023-07-30T04:56:31;22.10;;;3.42;;
23782;SDS011;12071;50.850;4.446;2023-07-30T04:58:56;18.58;;;3.70;;
23782;SDS011;12071;50.850;4.446;2023-07-30T05:01:23;17.77;;;2.92;;
23782;SDS011;12071;50.850;4.446;2023-07-30T05:03:49;16.08;;;3.08;;
23782;SDS011;12071;50.850;4.446;2023-07-30T05:06:15;18.25;;;2.80;;
23782;SDS011;12071;50.850;4.446;2023-07-30T05:08:41;16.98;;;2.85;;
23782;SDS011;12071;50.850;4.446;2023-07-30T05:11:06;15.98;;;2.40;;
23782;SDS011;12071;50.850;4.446;2023-07-30T05:13:32;12.88;;;2.70;;
23782;SDS011;12071;50.850;4.446;2023-07-30T05:15:58;17.75;;;3.33;;
23782;SDS011;12071;50.850;4.446;2023-07-30T05:18:23;13.10;;;3.05;;
23782;SDS011;12071;50.850;4.446;2023-07-30T05:20:49;19.15;;;2.80;;
23782;SDS011;12071;50.850;4.446;2023-07-30T05:23:15;17.65;;;2.85;;
23782;SDS011;12071;50.850;4.446;2023-07-30T05:25:41;16.58;;;2.67;;
23782;SDS011;12071;50.850;4.446;2023-07-30T05:28:07;14.77;;;2.72;;
23782;SDS011;12071;50.850;4.446;2023-07-30T05:30:32;16.58;;;3.00;;
23782;SDS011;12071;50.850;4.446;2023-07-30T05:32:58;18.42;;;2.97;;
23782;SDS011;12071;50.850;4.446;2023-07-30T05:35:23;16.90;;;2.42;;
23782;SDS011;12071;50.850;4.446;2023-07-30T05:37:49;18.17;;;3.08;;
23782;SDS011;12071;50.850;4.446;2023-07-30T05:40:15;16.90;;;2.78;;
23782;SDS011;12071;50.850;4.446;2023-07-30T05:42:40;20.23;;;3.10;;
23782;SDS011;12071;50.850;4.446;2023-07-30T05:45:06;23.23;;;3.13;;
23782;SDS011;12071;50.850;4.446;2023-07-30T05:47:33;18.70;;;3.60;;
23782;SDS011;12071;50.850;4.446;2023-07-30T05:49:58;20.30;;;2.67;;
23782;SDS011;12071;50.850;4.446;2023-07-30T05:52:24;16.70;;;3.60;;
23782;SDS011;12071;50.850;4.446;2023-07-30T05:54:49;20.42;;;3.53;;
23782;SDS011;12071;50.850;4.446;2023-07-30T05:57:15;16.73;;;2.75;;
23782;SDS011;12071;50.850;4.446;2023-07-30T05:59:40;15.15;;;2.70;;
23782;SDS011;12071;50.850;4.446;2023-07-30T06:02:06;16.25;;;3.03;;
23782;SDS011;12071;50.850;4.446;2023-07-30T06:04:32;14.30;;;2.47;;
23782;SDS011;12071;50.850;4.446;2023-07-30T06:06:59;16.65;;;3.20;;
23782;SDS011;12071;50.850;4.446;2023-07-30T06:09:25;10.30;;;2.33;;
23782;SDS011;12071;50.850;4.446;2023-07-30T06:11:51;17.63;;;3.17;;
23782;SDS011;12071;50.850;4.446;2023-07-30T06:14:16;15.63;;;2.70;;
23782;SDS011;12071;50.850;4.446;2023-07-30T06:16:42;15.32;;;2.63;;
23782;SDS011;12071;50.850;4.446;2023-07-30T06:19:08;15.20;;;2.63;;
23782;SDS011;12071;50.850;4.446;2023-07-30T06:21:34;17.73;;;2.90;;
23782;SDS011;12071;50.850;4.446;2023-07-30T06:24:00;17.52;;;2.90;;
23782;SDS011;12071;50.850;4.446;2023-07-30T06:26:25;14.55;;;3.22;;
23782;SDS011;12071;50.850;4.446;2023-07-30T06:28:51;17.63;;;2.70;;
23782;SDS011;12071;50.850;4.446;2023-07-30T06:31:16;19.77;;;3.28;;
23782;SDS011;12071;50.850;4.446;2023-07-30T06:33:42;18.60;;;3.33;;
23782;SDS011;12071;50.850;4.446;2023-07-30T06:36:08;15.23;;;2.75;;
23782;SDS011;12071;50.850;4.446;2023-07-30T06:38:33;16.10;;;3.45;;
23782;SDS011;12071;50.850;4.446;2023-07-30T06:40:59;14.93;;;2.90;;
23782;SDS011;12071;50.850;4.446;2023-07-30T06:43:25;19.13;;;3.22;;
23782;SDS011;12071;50.850;4.446;2023-07-30T06:45:52;20.73;;;2.92;;
23782;SDS011;12071;50.850;4.446;2023-07-30T06:48:18;16.50;;;2.95;;
23782;SDS011;12071;50.850;4.446;2023-07-30T06:50:44;13.23;;;2.97;;
23782;SDS011;12071;50.850;4.446;2023-07-30T06:53:12;20.35;;;3.47;;
23782;SDS011;12071;50.850;4.446;2023-07-30T06:55:38;22.77;;;2.90;;
23782;SDS011;12071;50.850;4.446;2023-07-30T06:58:03;16.02;;;2.55;;
23782;SDS011;12071;50.850;4.446;2023-07-30T07:00:29;17.88;;;3.25;;
23782;SDS011;12071;50.850;4.446;2023-07-30T07:02:54;20.88;;;3.42;;
23782;SDS011;12071;50.850;4.446;2023-07-30T07:05:20;18.85;;;2.95;;
23782;SDS011;12071;50.850;4.446;2023-07-30T07:07:46;16.38;;;3.42;;
23782;SDS011;12071;50.850;4.446;2023-07-30T07:10:12;18.33;;;3.15;;
23782;SDS011;12071;50.850;4.446;2023-07-30T07:12:38;18.55;;;3.10;;
23782;SDS011;12071;50.850;4.446;2023-07-30T07:15:04;23.48;;;3.28;;
23782;SDS011;12071;50.850;4.446;2023-07-30T07:17:30;18.20;;;3.03;;
23782;SDS011;12071;50.850;4.446;2023-07-30T07:19:56;14.02;;;2.78;;
23782;SDS011;12071;50.850;4.446;2023-07-30T07:22:22;19.85;;;2.50;;
23782;SDS011;12071;50.850;4.446;2023-07-30T07:24:49;20.08;;;2.95;;
23782;SDS011;12071;50.850;4.446;2023-07-30T07:27:17;16.77;;;3.22;;
23782;SDS011;12071;50.850;4.446;2023-07-30T07:29:43;21.33;;;3.58;;
23782;SDS011;12071;50.850;4.446;2023-07-30T07:32:08;13.65;;;2.63;;
23782;SDS011;12071;50.850;4.446;2023-07-30T07:34:34;10.00;;;2.45;;
23782;SDS011;12071;50.850;4.446;2023-07-30T07:37:00;21.15;;;3.10;;
23782;SDS011;12071;50.850;4.446;2023-07-30T07:39:27;14.95;;;2.60;;
23782;SDS011;12071;50.850;4.446;2023-07-30T07:41:52;13.73;;;2.78;;
23782;SDS011;12071;50.850;4.446;2023-07-30T07:44:18;13.73;;;3.00;;
23782;SDS011;12071;50.850;4.446;2023-07-30T07:46:43;17.27;;;2.53;;
23782;SDS011;12071;50.850;4.446;2023-07-30T07:49:09;14.52;;;2.50;;
23782;SDS011;12071;50.850;4.446;2023-07-30T07:51:34;16.88;;;2.45;;
23782;SDS011;12071;50.850;4.446;2023-07-30T07:54:00;11.48;;;3.17;;
23782;SDS011;12071;50.850;4.446;2023-07-30T07:56:26;20.60;;;3.10;;
23782;SDS011;12071;50.850;4.446;2023-07-30T07:58:51;19.85;;;2.50;;
23782;SDS011;12071;50.850;4.446;2023-07-30T08:01:17;19.67;;;3.00;;
23782;SDS011;12071;50.850;4.446;2023-07-30T08:03:42;13.57;;;2.70;;
23782;SDS011;12071;50.850;4.446;2023-07-30T08:06:09;9.77;;;2.20;;
23782;SDS011;12071;50.850;4.446;2023-07-30T08:08:34;13.82;;;2.33;;
23782;SDS011;12071;50.850;4.446;2023-07-30T08:11:04;17.15;;;2.85;;
23782;SDS011;12071;50.850;4.446;2023-07-30T08:13:31;11.60;;;2.40;;
23782;SDS011;12071;50.850;4.446;2023-07-30T08:15:56;13.27;;;2.65;;
23782;SDS011;12071;50.850;4.446;2023-07-30T08:18:22;14.63;;;2.22;;
23782;SDS011;12071;50.850;4.446;2023-07-30T08:20:49;12.55;;;1.92;;
23782;SDS011;12071;50.850;4.446;2023-07-30T08:23:14;11.30;;;1.95;;
23782;SDS011;12071;50.850;4.446;2023-07-30T08:25:40;11.75;;;1.95;;
23782;SDS011;12071;50.850;4.446;2023-07-30T08:28:06;15.65;;;2.53;;
23782;SDS011;12071;50.850;4.446;2023-07-30T08:30:31;12.65;;;2.35;;
23782;SDS011;12071;50.850;4.446;2023-07-30T08:32:57;13.02;;;2.38;;
23782;SDS011;12071;50.850;4.446;2023-07-30T08:35:22;8.95;;;2.00;;
23782;SDS011;12071;50.850;4.446;2023-07-30T08:37:48;11.13;;;1.88;;
23782;SDS011;12071;50.850;4.446;2023-07-30T08:40:14;10.63;;;2.05;;
23782;SDS011;12071;50.850;4.446;2023-07-30T08:42:40;16.33;;;2.88;;
23782;SDS011;12071;50.850;4.446;2023-07-30T08:45:06;15.02;;;2.60;;
23782;SDS011;12071;50.850;4.446;2023-07-30T08:47:33;9.85;;;1.83;;
23782;SDS011;12071;50.850;4.446;2023-07-30T08:50:00;15.95;;;2.58;;
23782;SDS011;12071;50.850;4.446;2023-07-30T08:52:26;10.20;;;2.10;;
23782;SDS011;12071;50.850;4.446;2023-07-30T08:54:53;15.10;;;2.78;;
23782;SDS011;12071;50.850;4.446;2023-07-30T08:57:21;11.98;;;2.70;;
23782;SDS011;12071;50.850;4.446;2023-07-30T08:59:50;10.15;;;2.20;;
23782;SDS011;12071;50.850;4.446;2023-07-30T09:02:24;11.27;;;2.10;;
23782;SDS011;12071;50.850;4.446;2023-07-30T09:04:56;9.48;;;2.25;;
23782;SDS011;12071;50.850;4.446;2023-07-30T09:07:25;12.52;;;2.63;;
23782;SDS011;12071;50.850;4.446;2023-07-30T09:09:50;14.13;;;2.28;;
23782;SDS011;12071;50.850;4.446;2023-07-30T09:12:16;12.52;;;2.08;;
23782;SDS011;12071;50.850;4.446;2023-07-30T09:14:42;7.18;;;1.83;;
23782;SDS011;12071;50.850;4.446;2023-07-30T09:17:17;9.55;;;1.90;;
23782;SDS011;12071;50.850;4.446;2023-07-30T09:19:43;11.93;;;2.35;;
23782;SDS011;12071;50.850;4.446;2023-07-30T09:22:09;10.52;;;1.75;;
23782;SDS011;12071;50.850;4.446;2023-07-30T09:24:35;8.95;;;1.90;;
23782;SDS011;12071;50.850;4.446;2023-07-30T09:27:01;9.85;;;2.25;;
23782;SDS011;12071;50.850;4.446;2023-07-30T09:29:28;7.47;;;1.60;;
23782;SDS011;12071;50.850;4.446;2023-07-30T09:31:54;6.80;;;1.75;;
23782;SDS011;12071;50.850;4.446;2023-07-30T09:34:21;10.57;;;2.00;;
23782;SDS011;12071;50.850;4.446;2023-07-30T09:36:50;8.70;;;1.98;;
23782;SDS011;12071;50.850;4.446;2023-07-30T09:39:17;9.48;;;1.98;;
23782;SDS011;12071;50.850;4.446;2023-07-30T09:41:50;11.38;;;2.00;;
23782;SDS011;12071;50.850;4.446;2023-07-30T09:44:23;8.70;;;2.13;;
23782;SDS011;12071;50.850;4.446;2023-07-30T09:46:49;10.95;;;1.67;;
23782;SDS011;12071;50.850;4.446;2023-07-30T09:49:15;8.15;;;1.75;;
23782;SDS011;12071;50.850;4.446;2023-07-30T09:51:42;13.82;;;2.25;;
23782;SDS011;12071;50.850;4.446;2023-07-30T09:54:08;12.13;;;2.22;;
23782;SDS011;12071;50.850;4.446;2023-07-30T09:56:36;6.35;;;1.92;;
23782;SDS011;12071;50.850;4.446;2023-07-30T09:59:03;11.35;;;1.92;;
23782;SDS011;12071;50.850;4.446;2023-07-30T10:01:30;11.85;;;2.13;;
23782;SDS011;12071;50.850;4.446;2023-07-30T10:03:57;13.68;;;2.30;;
23782;SDS011;12071;50.850;4.446;2023-07-30T10:06:23;11.93;;;2.28;;
23782;SDS011;12071;50.850;4.446;2023-07-30T10:08:52;10.90;;;2.00;;
23782;SDS011;12071;50.850;4.446;2023-07-30T10:11:21;7.72;;;1.73;;
23782;SDS011;12071;50.850;4.446;2023-07-30T10:13:48;9.82;;;1.75;;
23782;SDS011;12071;50.850;4.446;2023-07-30T10:16:15;15.30;;;2.00;;
23782;SDS011;12071;50.850;4.446;2023-07-30T10:18:41;7.35;;;1.58;;
23782;SDS011;12071;50.850;4.446;2023-07-30T10:21:08;10.52;;;2.25;;
23782;SDS011;12071;50.850;4.446;2023-07-30T10:23:35;7.75;;;2.05;;
23782;SDS011;12071;50.850;4.446;2023-07-30T10:26:27;7.40;;;2.15;;
23782;SDS011;12071;50.850;4.446;2023-07-30T10:31:55;8.52;;;1.83;;
23782;SDS011;12071;50.850;4.446;2023-07-30T10:34:21;7.10;;;1.75;;
23782;SDS011;12071;50.850;4.446;2023-07-30T10:36:50;6.57;;;1.50;;
23782;SDS011;12071;50.850;4.446;2023-07-30T10:39:17;9.10;;;1.73;;
23782;SDS011;12071;50.850;4.446;2023-07-30T10:41:55;9.73;;;1.83;;
23782;SDS011;12071;50.850;4.446;2023-07-30T10:44:22;9.10;;;1.70;;
23782;SDS011;12071;50.850;4.446;2023-07-30T10:46:50;8.10;;;1.77;;
23782;SDS011;12071;50.850;4.446;2023-07-30T10:49:26;4.60;;;1.50;;
23782;SDS011;12071;50.850;4.446;2023-07-30T10:51:52;10.73;;;2.13;;
23782;SDS011;12071;50.850;4.446;2023-07-30T10:54:19;8.00;;;1.77;;
23782;SDS011;12071;50.850;4.446;2023-07-30T10:56:45;12.10;;;1.90;;
23782;SDS011;12071;50.850;4.446;2023-07-30T10:59:11;6.80;;;1.30;;
23782;SDS011;12071;50.850;4.446;2023-07-30T11:01:39;11.15;;;1.88;;
23782;SDS011;12071;50.850;4.446;2023-07-30T11:04:07;5.95;;;1.73;;
23782;SDS011;12071;50.850;4.446;2023-07-30T11:06:36;7.15;;;1.30;;
23782;SDS011;12071;50.850;4.446;2023-07-30T11:09:02;8.70;;;1.73;;
23782;SDS011;12071;50.850;4.446;2023-07-30T11:11:28;7.07;;;2.00;;
23782;SDS011;12071;50.850;4.446;2023-07-30T11:13:54;10.02;;;1.80;;
23782;SDS011;12071;50.850;4.446;2023-07-30T11:16:20;8.93;;;1.80;;
23782;SDS011;12071;50.850;4.446;2023-07-30T11:18:45;6.30;;;1.70;;
23782;SDS011;12071;50.850;4.446;2023-07-30T11:21:16;7.35;;;1.52;;
23782;SDS011;12071;50.850;4.446;2023-07-30T11:23:43;7.75;;;1.50;;
23782;SDS011;12071;50.850;4.446;2023-07-30T11:26:17;8.82;;;1.50;;
23782;SDS011;12071;50.850;4.446;2023-07-30T11:28:43;7.60;;;1.30;;
23782;SDS011;12071;50.850;4.446;2023-07-30T11:31:10;8.23;;;1.52;;
23782;SDS011;12071;50.850;4.446;2023-07-30T11:33:44;6.10;;;1.20;;
23782;SDS011;12071;50.850;4.446;2023-07-30T11:36:12;5.70;;;1.30;;
23782;SDS011;12071;50.850;4.446;2023-07-30T11:38:43;6.78;;;1.33;;
23782;SDS011;12071;50.850;4.446;2023-07-30T11:41:10;6.97;;;1.23;;
23782;SDS011;12071;50.850;4.446;2023-07-30T11:43:38;7.30;;;1.27;;
23782;SDS011;12071;50.850;4.446;2023-07-30T11:46:08;7.55;;;1.55;;
23782;SDS011;12071;50.850;4.446;2023-07-30T11:48:35;2.95;;;1.15;;
23782;SDS011;12071;50.850;4.446;2023-07-30T11:51:01;6.43;;;1.15;;
23782;SDS011;12071;50.850;4.446;2023-07-30T11:56:29;4.43;;;1.20;;
23782;SDS011;12071;50.850;4.446;2023-07-30T11:58:57;5.50;;;1.52;;
23782;SDS011;12071;50.850;4.446;2023-07-30T12:01:25;7.97;;;0.90;;
23782;SDS011;12071;50.850;4.446;2023-07-30T12:03:54;8.65;;;1.48;;
23782;SDS011;12071;50.850;4.446;2023-07-30T12:06:20;4.45;;;0.90;;
23782;SDS011;12071;50.850;4.446;2023-07-30T12:08:48;4.78;;;1.45;;
23782;SDS011;12071;50.850;4.446;2023-07-30T12:11:17;4.13;;;1.20;;
23782;SDS011;12071;50.850;4.446;2023-07-30T12:13:47;6.97;;;1.27;;
23782;SDS011;12071;50.850;4.446;2023-07-30T12:16:15;4.57;;;0.98;;
23782;SDS011;12071;50.850;4.446;2023-07-30T12:18:40;4.38;;;1.17;;
23782;SDS011;12071;50.850;4.446;2023-07-30T12:21:06;3.88;;;0.80;;
23782;SDS011;12071;50.850;4.446;2023-07-30T12:23:33;6.30;;;1.33;;
23782;SDS011;12071;50.850;4.446;2023-07-30T12:25:59;9.18;;;1.40;;
23782;SDS011;12071;50.850;4.446;2023-07-30T12:28:25;7.32;;;1.23;;
23782;SDS011;12071;50.850;4.446;2023-07-30T12:30:50;4.70;;;1.20;;
23782;SDS011;12071;50.850;4.446;2023-07-30T12:33:16;6.85;;;1.40;;
23782;SDS011;12071;50.850;4.446;2023-07-30T12:35:42;6.28;;;1.50;;
23782;SDS011;12071;50.850;4.446;2023-07-30T12:38:07;6.22;;;1.35;;
23782;SDS011;12071;50.850;4.446;2023-07-30T12:40:33;7.38;;;1.63;;
23782;SDS011;12071;50.850;4.446;2023-07-30T12:43:02;6.55;;;1.45;;
23782;SDS011;12071;50.850;4.446;2023-07-30T12:45:28;6.32;;;1.33;;
23782;SDS011;12071;50.850;4.446;2023-07-30T12:47:54;5.95;;;1.40;;
23782;SDS011;12071;50.850;4.446;2023-07-30T12:50:20;4.00;;;1.05;;
23782;SDS011;12071;50.850;4.446;2023-07-30T12:52:46;5.97;;;1.40;;
23782;SDS011;12071;50.850;4.446;2023-07-30T12:55:11;8.50;;;1.50;;
23782;SDS011;12071;50.850;4.446;2023-07-30T12:57:37;3.35;;;1.17;;
23782;SDS011;12071;50.850;4.446;2023-07-30T13:00:03;5.50;;;1.30;;
23782;SDS011;12071;50.850;4.446;2023-07-30T13:02:30;5.97;;;0.93;;
23782;SDS011;12071;50.850;4.446;2023-07-30T13:04:58;3.50;;;1.10;;
23782;SDS011;12071;50.850;4.446;2023-07-30T13:07:24;2.47;;;0.82;;
23782;SDS011;12071;50.850;4.446;2023-07-30T13:09:54;3.85;;;1.10;;
23782;SDS011;12071;50.850;4.446;2023-07-30T13:12:28;4.05;;;1.00;;
23782;SDS011;12071;50.850;4.446;2023-07-30T13:14:53;4.60;;;1.27;;
23782;SDS011;12071;50.850;4.446;2023-07-30T13:17:19;5.03;;;1.30;;
23782;SDS011;12071;50.850;4.446;2023-07-30T13:19:44;8.18;;;1.30;;
23782;SDS011;12071;50.850;4.446;2023-07-30T13:22:10;4.15;;;0.95;;
23782;SDS011;12071;50.850;4.446;2023-07-30T13:24:35;4.07;;;1.02;;
23782;SDS011;12071;50.850;4.446;2023-07-30T13:27:01;7.10;;;1.70;;
23782;SDS011;12071;50.850;4.446;2023-07-30T13:29:27;4.07;;;1.00;;
23782;SDS011;12071;50.850;4.446;2023-07-30T13:31:52;4.47;;;1.27;;
23782;SDS011;12071;50.850;4.446;2023-07-30T13:34:18;3.85;;;1.10;;
23782;SDS011;12071;50.850;4.446;2023-07-30T13:36:43;3.65;;;1.40;;
23782;SDS011;12071;50.850;4.446;2023-07-30T13:39:09;5.88;;;1.63;;
23782;SDS011;12071;50.850;4.446;2023-07-30T13:41:34;4.18;;;1.40;;
23782;SDS011;12071;50.850;4.446;2023-07-30T13:44:00;3.97;;;1.33;;
23782;SDS011;12071;50.850;4.446;2023-07-30T13:46:26;5.70;;;1.60;;
23782;SDS011;12071;50.850;4.446;2023-07-30T13:48:51;6.95;;;1.48;;
23782;SDS011;12071;50.850;4.446;2023-07-30T13:51:17;5.95;;;1.63;;
23782;SDS011;12071;50.850;4.446;2023-07-30T13:53:42;6.55;;;1.52;;
23782;SDS011;12071;50.850;4.446;2023-07-30T13:56:08;6.07;;;1.60;;
23782;SDS011;12071;50.850;4.446;2023-07-30T13:58:34;5.20;;;1.50;;
23782;SDS011;12071;50.850;4.446;2023-07-30T14:00:59;7.25;;;1.40;;
23782;SDS011;12071;50.850;4.446;2023-07-30T14:03:25;7.40;;;1.73;;
23782;SDS011;12071;50.850;4.446;2023-07-30T14:05:50;6.05;;;1.58;;
23782;SDS011;12071;50.850;4.446;2023-07-30T14:08:16;6.93;;;1.70;;
23782;SDS011;12071;50.850;4.446;2023-07-30T14:10:41;4.68;;;1.50;;
23782;SDS011;12071;50.850;4.446;2023-07-30T14:13:07;4.85;;;1.83;;
23782;SDS011;12071;50.850;4.446;2023-07-30T14:15:33;6.55;;;1.70;;
23782;SDS011;12071;50.850;4.446;2023-07-30T14:17:58;3.92;;;1.60;;
23782;SDS011;12071;50.850;4.446;2023-07-30T14:20:24;5.28;;;1.75;;
23782;SDS011;12071;50.850;4.446;2023-07-30T14:22:49;3.35;;;1.58;;
23782;SDS011;12071;50.850;4.446;2023-07-30T14:25:16;11.13;;;1.83;;
23782;SDS011;12071;50.850;4.446;2023-07-30T14:27:42;5.53;;;1.40;;
23782;SDS011;12071;50.850;4.446;2023-07-30T14:30:08;5.30;;;1.50;;
23782;SDS011;12071;50.850;4.446;2023-07-30T14:32:33;4.30;;;1.40;;
23782;SDS011;12071;50.850;4.446;2023-07-30T14:34:59;6.45;;;1.90;;
23782;SDS011;12071;50.850;4.446;2023-07-30T14:37:25;5.10;;;1.83;;
23782;SDS011;12071;50.850;4.446;2023-07-30T14:39:50;5.60;;;1.73;;